Sage, Arkansas
Current Conditions -  °F | °C
As of 8:35 AM on Sunday 21 Dec 2014 (Local Time) from KBVX Reporting Station
Overcast Overcast  
Wind Chill: 37°   Ceiling: 4500
Heat Index: 41°   Visibility: 10mi
Dew Point: 32°   Wind: 6mph
Humidity: 70%   Direction: 130°SE
Pressure: 30.19"   Gusts: NA
Location:  36.05°N, 91.82°W
Report Text: KBVX 211435Z AUTO 13005KT 10SM OVC045 05/00 A3019 RMK AO1
Loading
Personal Weather Stations






























Interactive Weather Map New forecast layout! Learn more

10-Day Weather Forecast

Advertisements
Track Severe Weather on mobile